Time;durP1;ratioP1;P1;durP2;ratioP2;P2;SDS_P1;SDS_P2;PMS_P1;PMS_P2;Temp;Humidity;BMP_temperature;BMP_pressure;BME280_temperature;BME280_humidity;BME280_pressure;Samples;Min_cycle;Max_cycle;Signal;HPM_P1;HPM_P2
2022/08/22 00:00:13;;;;;;;4.03;1.20;;;21.70;95.00;;;;;;4111414;28;20258;-67
2022/08/22 00:02:35;;;;;;;6.95;1.70;;;21.70;95.40;;;;;;4110713;28;20031;-67
2022/08/22 00:05:20;;;;;;;3.88;1.60;;;21.70;95.80;;;;;;4110489;28;20033;-66
2022/08/22 00:07:52;;;;;;;4.07;1.30;;;21.60;95.70;;;;;;4110258;28;20031;-67
2022/08/22 00:10:23;;;;;;;2.95;1.30;;;21.70;96.00;;;;;;4109270;28;20514;-66
2022/08/22 00:12:36;;;;;;;3.35;1.38;;;21.70;95.20;;;;;;4099227;28;20042;-67
2022/08/22 00:14:52;;;;;;;2.67;1.02;;;21.70;95.30;;;;;;4110924;28;20027;-68
2022/08/22 00:17:13;;;;;;;2.33;1.23;;;21.60;94.50;;;;;;4111153;28;21218;-68
2022/08/22 00:19:42;;;;;;;2.80;1.25;;;21.60;96.30;;;;;;4108608;28;20039;-68
2022/08/22 00:21:56;;;;;;;3.45;1.08;;;21.60;96.70;;;;;;4098730;28;20398;-68
2022/08/22 00:24:22;;;;;;;1.92;1.02;;;21.60;95.90;;;;;;4111883;28;20035;-67
2022/08/22 00:26:42;;;;;;;2.60;1.20;;;21.50;96.10;;;;;;4106702;28;20035;-67
2022/08/22 00:28:52;;;;;;;2.67;1.30;;;21.50;96.00;;;;;;4108508;28;20038;-68
2022/08/22 00:31:20;;;;;;;2.10;1.23;;;21.50;95.20;;;;;;4109218;28;22311;-66
2022/08/22 00:33:32;;;;;;;3.72;1.58;;;21.40;95.30;;;;;;4111768;28;20118;-66
2022/08/22 00:35:48;;;;;;;1.55;1.05;;;21.40;95.50;;;;;;4109653;28;20041;-66
2022/08/22 00:38:13;;;;;;;2.35;1.20;;;21.40;95.70;;;;;;4110986;28;20034;-67
2022/08/22 00:40:41;;;;;;;2.95;1.50;;;21.30;95.10;;;;;;4109423;28;20047;-67
2022/08/22 00:43:08;;;;;;;4.75;1.65;;;21.30;95.20;;;;;;4107785;28;20466;-67
2022/08/22 00:45:15;;;;;;;2.75;1.13;;;21.30;95.60;;;;;;4103643;28;20113;-68
2022/08/22 00:47:35;;;;;;;1.58;0.93;;;21.30;95.60;;;;;;4111926;28;20422;-67
2022/08/22 00:49:56;;;;;;;3.03;1.10;;;21.20;94.90;;;;;;4111156;28;20078;-65
2022/08/22 00:52:23;;;;;;;6.00;1.65;;;21.20;95.50;;;;;;4105213;28;20055;-66
2022/08/22 00:54:56;;;;;;;2.55;1.42;;;21.20;96.40;;;;;;4111201;28;20062;-67
2022/08/22 00:57:20;;;;;;;11.30;1.67;;;21.20;96.80;;;;;;4109521;28;20027;-66
2022/08/22 00:59:30;;;;;;;;;;;21.10;95.90;;;;;;4108898;28;20027;-66
2022/08/22 01:01:35;;;;;;;2.25;1.13;;;21.10;96.70;;;;;;4109547;28;19979;-66
2022/08/22 01:03:49;;;;;;;3.55;1.15;;;21.10;97.20;;;;;;4111292;28;20042;-66
2022/08/22 01:06:05;;;;;;;4.30;1.52;;;21.00;96.40;;;;;;4109828;28;20122;-67
2022/08/22 01:08:33;;;;;;;2.75;1.27;;;21.00;95.90;;;;;;4109058;28;20042;-66
2022/08/22 01:11:04;;;;;;;2.35;1.25;;;20.90;95.90;;;;;;4108462;28;20035;-66
2022/08/22 01:13:30;;;;;;;2.97;0.98;;;20.90;96.20;;;;;;4110065;28;20173;-67
2022/08/22 01:15:35;;;;;;;3.30;1.40;;;20.90;96.70;;;;;;4111137;28;20491;-67
2022/08/22 01:18:17;;;;;;;3.80;1.33;;;20.90;97.60;;;;;;4109960;28;20505;-67
2022/08/22 01:20:52;;;;;;;2.63;1.15;;;20.80;96.70;;;;;;4109639;28;20027;-67
2022/08/22 01:23:21;;;;;;;2.25;1.15;;;20.80;96.50;;;;;;4109117;28;20118;-67
2022/08/22 01:25:59;;;;;;;2.25;1.33;;;20.70;97.10;;;;;;4109166;28;20039;-66
2022/08/22 01:28:03;;;;;;;1.75;0.98;;;20.70;97.40;;;;;;4089561;28;20031;-66
2022/08/22 01:30:42;;;;;;;2.40;1.25;;;20.70;97.10;;;;;;4111650;28;20126;-67
2022/08/22 01:33:16;;;;;;;2.10;1.10;;;20.60;96.80;;;;;;4108006;28;20036;-67
2022/08/22 01:35:31;;;;;;;3.10;1.40;;;20.60;96.90;;;;;;4105239;28;20027;-66
2022/08/22 01:37:53;;;;;;;2.35;1.30;;;20.60;97.40;;;;;;4110519;28;20031;-66
2022/08/22 01:40:29;;;;;;;1.92;1.33;;;20.60;98.60;;;;;;4111056;28;20513;-67
2022/08/22 01:42:56;;;;;;;1.90;1.08;;;20.60;97.60;;;;;;4110406;28;20029;-66
2022/08/22 01:45:33;;;;;;;1.90;1.20;;;20.60;97.00;;;;;;4111203;28;20039;-66
2022/08/22 01:48:01;;;;;;;2.05;1.20;;;20.60;97.10;;;;;;4109018;28;20090;-67
2022/08/22 01:50:13;;;;;;;3.25;1.30;;;20.60;97.40;;;;;;4098631;28;20027;-66
2022/08/22 01:52:35;;;;;;;2.47;1.07;;;20.50;97.90;;;;;;4103323;28;20090;-67
2022/08/22 01:54:58;;;;;;;5.60;1.33;;;20.50;98.20;;;;;;4110178;28;20333;-65
2022/08/22 01:57:06;;;;;;;4.25;1.63;;;20.50;97.50;;;;;;4097540;28;20040;-67
2022/08/22 01:59:33;;;;;;;2.67;1.33;;;20.50;97.40;;;;;;4111983;28;20027;-66
2022/08/22 02:01:36;;;;;;;3.15;1.38;;;20.50;97.00;;;;;;4087608;28;20057;-65
2022/08/22 02:04:06;;;;;;;2.50;1.30;;;20.40;97.40;;;;;;4113521;28;20038;-66
2022/08/22 02:06:23;;;;;;;4.13;1.23;;;20.40;98.10;;;;;;4112669;28;20162;-66
2022/08/22 02:08:49;;;;;;;2.97;1.40;;;20.40;98.10;;;;;;4111322;28;20045;-67
2022/08/22 02:10:53;;;;;;;3.20;1.55;;;20.30;97.70;;;;;;4096989;28;20518;-67
2022/08/22 02:13:22;;;;;;;1.73;1.25;;;20.40;98.00;;;;;;4114011;28;20364;-67
2022/08/22 02:15:45;;;;;;;3.88;1.40;;;20.40;98.20;;;;;;4106562;28;20051;-67
2022/08/22 02:17:53;;;;;;;;;;;20.40;99.20;;;;;;4097616;28;20122;-66
2022/08/22 02:20:03;;;;;;;2.75;1.30;;;20.30;97.80;;;;;;4113265;28;20000;-66
2022/08/22 02:22:18;;;;;;;3.92;1.70;;;20.30;97.60;;;;;;4108931;28;20034;-66
2022/08/22 02:24:32;;;;;;;3.10;1.45;;;20.20;98.20;;;;;;4113406;28;20557;-66
2022/08/22 02:26:48;;;;;;;1.98;1.33;;;20.20;98.30;;;;;;4113291;28;20031;-67
2022/08/22 02:29:16;;;;;;;1.73;1.20;;;20.20;98.00;;;;;;4111169;28;20565;-66
2022/08/22 02:31:35;;;;;;;6.18;2.08;;;20.20;98.80;;;;;;4092293;28;20031;-67
2022/08/22 02:33:41;;;;;;;2.72;1.17;;;20.20;98.80;;;;;;4110405;28;20054;-66
2022/08/22 02:36:01;;;;;;;2.20;1.20;;;20.20;98.60;;;;;;4111591;28;20113;-66
2022/08/22 02:38:19;;;;;;;2.13;1.25;;;20.20;98.10;;;;;;4113364;28;20386;-67
2022/08/22 02:40:32;;;;;;;2.75;1.33;;;20.10;97.70;;;;;;4111957;28;20030;-67
2022/08/22 02:42:40;;;;;;;3.17;1.35;;;20.10;98.40;;;;;;4110975;28;20035;-66
2022/08/22 02:45:22;;;;;;;1.77;1.30;;;20.10;98.60;;;;;;4110807;28;20445;-66
2022/08/22 02:47:32;;;;;;;4.20;1.30;;;20.10;98.80;;;;;;4112496;28;20109;-67
2022/08/22 02:49:32;;;;;;;3.05;1.50;;;20.00;99.00;;;;;;4113700;28;20031;-67
2022/08/22 02:51:46;;;;;;;3.78;1.80;;;20.10;99.00;;;;;;4110701;28;20085;-67
2022/08/22 02:53:59;;;;;;;2.47;1.15;;;20.10;98.80;;;;;;4108669;28;20125;-66
2022/08/22 02:56:13;;;;;;;3.93;1.70;;;20.00;99.20;;;;;;4111673;28;20413;-66
2022/08/22 02:59:00;;;;;;;3.63;1.60;;;20.10;99.80;;;;;;4112574;28;20262;-66
2022/08/22 03:01:29;;;;;;;3.10;1.58;;;20.10;99.80;;;;;;4051310;28;20041;-67
2022/08/22 03:03:40;;;;;;;3.90;1.30;;;20.10;99.60;;;;;;4095889;28;20030;-66
2022/08/22 03:05:43;;;;;;;3.22;1.58;;;20.10;99.90;;;;;;4111822;28;20171;-66
2022/08/22 03:08:06;;;;;;;4.40;1.42;;;20.10;99.50;;;;;;4116836;28;20118;-67
2022/08/22 03:10:17;;;;;;;2.70;1.60;;;20.10;99.50;;;;;;4114077;28;20071;-65
2022/08/22 03:12:43;;;;;;;3.38;1.35;;;20.10;99.90;;;;;;4108614;28;20057;-67
2022/08/22 03:15:00;;;;;;;2.63;1.58;;;20.10;99.90;;;;;;4114661;28;20030;-67
2022/08/22 03:17:05;;;;;;;1.98;1.30;;;20.00;99.90;;;;;;4111982;28;20311;-67
2022/08/22 03:19:14;;;;;;;3.90;1.67;;;20.10;99.90;;;;;;4112678;28;20118;-67
2022/08/22 03:21:30;;;;;;;2.25;1.40;;;20.00;99.90;;;;;;4109877;28;20558;-67
2022/08/22 03:23:54;;;;;;;2.50;1.10;;;20.00;99.90;;;;;;4111705;28;20034;-66
2022/08/22 03:26:00;;;;;;;2.78;1.50;;;20.00;99.90;;;;;;4098213;28;20059;-67
2022/08/22 03:28:08;;;;;;;4.05;1.50;;;20.00;99.90;;;;;;4111216;28;20430;-67
2022/08/22 03:30:18;;;;;;;5.72;1.80;;;20.00;99.90;;;;;;4109652;28;20058;-66
2022/08/22 03:33:01;;;;;;;5.75;1.80;;;19.90;99.90;;;;;;4108161;28;20039;-67
2022/08/22 03:35:07;;;;;;;3.13;1.60;;;19.90;99.90;;;;;;4044646;29;20044;-66
2022/08/22 03:37:10;;;;;;;3.50;1.40;;;19.90;99.90;;;;;;4032391;29;20492;-66
2022/08/22 03:39:33;;;;;;;3.00;1.50;;;19.90;99.90;;;;;;4041413;28;20528;-67
2022/08/22 03:42:01;;;;;;;1.15;0.73;;;19.90;99.90;;;;;;4108218;28;20031;-67
2022/08/22 03:44:40;;;;;;;3.97;1.48;;;19.80;99.90;;;;;;4107710;28;20376;-67
2022/08/22 03:47:05;;;;;;;2.45;1.45;;;19.80;99.90;;;;;;4072760;28;20486;-67
2022/08/22 03:49:56;;;;;;;3.45;1.40;;;19.80;99.90;;;;;;4107549;28;20038;-67
2022/08/22 03:52:06;;;;;;;2.55;1.38;;;19.80;99.90;;;;;;4106973;28;20117;-66
2022/08/22 03:54:37;;;;;;;2.67;1.48;;;19.70;99.90;;;;;;4111050;28;20055;-66
2022/08/22 03:57:05;;;;;;;2.30;1.52;;;19.70;99.90;;;;;;4118884;28;20113;-66
2022/08/22 03:59:33;;;;;;;2.58;1.40;;;19.80;99.90;;;;;;4114718;28;20125;-67
2022/08/22 04:02:18;;;;;;;3.22;1.38;;;19.70;99.90;;;;;;4112016;28;20494;-67
2022/08/22 04:04:57;;;;;;;2.85;1.50;;;19.70;99.90;;;;;;4098601;28;20050;-67
2022/08/22 04:06:58;;;;;;;3.00;1.20;;;19.60;99.90;;;;;;4113590;28;20053;-67
2022/08/22 04:09:25;;;;;;;2.65;1.58;;;19.70;99.90;;;;;;4119425;28;20043;-67
2022/08/22 04:12:07;;;;;;;1.45;1.20;;;19.70;99.90;;;;;;4109715;28;20035;-67
2022/08/22 04:14:30;;;;;;;1.95;1.20;;;19.70;99.90;;;;;;4096025;28;20097;-67
2022/08/22 04:17:03;;;;;;;4.15;1.50;;;19.60;99.90;;;;;;4107436;28;20387;-67
2022/08/22 04:19:30;;;;;;;3.22;1.70;;;19.60;99.90;;;;;;4112195;28;20105;-67
2022/08/22 04:21:52;;;;;;;4.45;1.40;;;19.60;99.90;;;;;;4110756;28;20110;-68
2022/08/22 04:24:17;;;;;;;2.85;1.45;;;19.60;99.90;;;;;;4112666;28;20038;-67
2022/08/22 04:26:24;;;;;;;2.30;1.48;;;19.60;99.90;;;;;;4117156;28;20041;-66
2022/08/22 04:28:37;;;;;;;3.50;1.50;;;19.60;99.90;;;;;;4116538;28;20467;-68
2022/08/22 04:31:07;;;;;;;2.38;1.30;;;19.60;99.90;;;;;;4106172;28;20511;-66
2022/08/22 04:33:24;;;;;;;2.72;1.40;;;19.70;99.90;;;;;;4112843;28;20045;-67
2022/08/22 04:35:51;;;;;;;1.85;1.23;;;19.60;99.90;;;;;;4111287;28;20088;-67
2022/08/22 04:38:06;;;;;;;3.55;1.70;;;19.60;99.90;;;;;;4109088;28;20030;-67
2022/08/22 04:40:20;;;;;;;3.95;1.55;;;19.60;99.90;;;;;;4112841;28;20062;-67
2022/08/22 04:42:31;;;;;;;4.78;1.50;;;19.60;99.90;;;;;;4115506;28;20094;-67
2022/08/22 04:44:40;;;;;;;2.70;1.65;;;19.60;99.90;;;;;;4117496;28;20035;-67
2022/08/22 04:47:05;;;;;;;3.70;1.50;;;19.60;99.90;;;;;;4117254;28;20038;-66
2022/08/22 04:49:15;;;;;;;4.63;1.90;;;19.60;99.90;;;;;;4111341;28;20094;-68
2022/08/22 04:51:34;;;;;;;2.63;1.50;;;19.60;99.90;;;;;;4110470;28;20380;-67
2022/08/22 04:54:13;;;;;;;2.80;1.48;;;19.60;99.90;;;;;;4104216;28;20131;-67
2022/08/22 04:56:45;;;;;;;2.15;1.48;;;19.60;99.90;;;;;;4110067;28;20039;-67
2022/08/22 04:58:57;;;;;;;3.88;1.80;;;19.60;99.90;;;;;;4110528;28;20038;-67
2022/08/22 05:01:19;;;;;;;2.13;1.30;;;19.60;99.90;;;;;;4108427;28;20126;-67
2022/08/22 05:03:23;;;;;;;7.72;1.60;;;19.60;99.90;;;;;;4113305;28;20039;-67
2022/08/22 05:05:37;;;;;;;3.28;1.83;;;19.60;99.90;;;;;;4107340;28;20698;-68
2022/08/22 05:08:04;;;;;;;2.42;1.48;;;19.70;99.90;;;;;;4090750;28;20110;-66
2022/08/22 05:10:16;;;;;;;3.60;1.83;;;19.70;99.90;;;;;;4107323;28;20489;-67
2022/08/22 05:12:24;;;;;;;4.18;1.70;;;19.70;99.90;;;;;;4110189;28;20042;-67
2022/08/22 05:14:35;;;;;;;2.63;1.60;;;19.70;99.90;;;;;;4111884;28;20078;-66
2022/08/22 05:16:40;;;;;;;3.20;1.50;;;19.70;99.90;;;;;;4112477;28;20031;-67
2022/08/22 05:18:53;;;;;;;3.15;1.42;;;19.70;99.90;;;;;;4104680;28;20143;-70
2022/08/22 05:20:57;;;;;;;2.97;1.73;;;19.80;99.90;;;;;;4105122;28;20078;-70
2022/08/22 05:23:18;;;;;;;3.05;1.90;;;19.80;99.90;;;;;;4111718;28;20035;-70
2022/08/22 05:25:25;;;;;;;2.65;1.60;;;19.80;99.90;;;;;;4087290;28;20031;-70
2022/08/22 05:27:34;;;;;;;3.65;1.70;;;19.80;99.90;;;;;;4112465;28;20453;-70
2022/08/22 05:29:39;;;;;;;5.20;1.95;;;19.80;99.90;;;;;;4104871;28;20070;-69
2022/08/22 05:31:48;;;;;;;3.63;1.73;;;19.90;99.90;;;;;;4106943;28;20129;-71
2022/08/22 05:34:13;;;;;;;5.03;2.20;;;19.90;99.90;;;;;;4108126;28;20461;-70
2022/08/22 05:36:26;;;;;;;4.93;2.00;;;19.90;99.90;;;;;;4110735;28;20046;-70
2022/08/22 05:38:33;;;;;;;4.60;1.90;;;20.00;99.90;;;;;;4110855;28;20541;-71
2022/08/22 05:40:36;;;;;;;2.78;1.50;;;20.00;99.90;;;;;;4111537;28;20129;-70
2022/08/22 05:42:37;;;;;;;5.97;1.92;;;20.00;99.90;;;;;;4110761;28;20065;-71
2022/08/22 05:44:38;;;;;;;3.35;2.20;;;20.00;99.90;;;;;;4110474;28;20035;-70
2022/08/22 05:46:42;;;;;;;4.85;2.30;;;20.00;99.90;;;;;;4108693;28;20039;-69
2022/08/22 05:48:51;;;;;;;11.43;2.22;;;20.10;99.90;;;;;;4108570;28;20070;-69
2022/08/22 05:50:58;;;;;;;3.65;1.73;;;20.10;99.90;;;;;;4109211;28;20047;-70
2022/08/22 05:53:08;;;;;;;4.18;2.00;;;20.10;99.90;;;;;;4110957;28;20507;-71
2022/08/22 05:55:35;;;;;;;6.45;2.50;;;20.10;99.90;;;;;;4108425;28;20042;-70
2022/08/22 05:57:41;;;;;;;3.70;1.92;;;20.10;99.90;;;;;;4109920;28;20043;-70
2022/08/22 05:59:42;;;;;;;4.38;1.88;;;20.10;99.90;;;;;;4109460;28;20035;-70
2022/08/22 06:02:02;;;;;;;4.15;2.35;;;20.20;99.90;;;;;;4108610;28;20506;-70
2022/08/22 06:04:43;;;;;;;2.97;1.88;;;20.20;99.90;;;;;;4107819;28;20089;-69
2022/08/22 06:07:05;;;;;;;3.25;1.90;;;20.20;99.90;;;;;;4109451;28;20482;-70
2022/08/22 06:09:17;;;;;;;4.65;1.85;;;20.30;99.90;;;;;;4109153;28;20618;-69
2022/08/22 06:11:44;;;;;;;3.95;1.98;;;20.30;99.90;;;;;;4094752;28;20447;-67
2022/08/22 06:13:56;;;;;;;7.97;2.30;;;20.30;99.90;;;;;;4110573;28;20502;-70
2022/08/22 06:16:15;;;;;;;3.78;2.15;;;20.40;99.90;;;;;;4108080;28;20030;-69
2022/08/22 06:18:21;;;;;;;4.47;2.20;;;20.40;99.90;;;;;;4107959;28;20081;-69
2022/08/22 06:20:27;;;;;;;5.90;2.50;;;20.40;99.90;;;;;;4107490;28;20065;-70
2022/08/22 06:22:32;;;;;;;4.63;2.55;;;20.40;99.90;;;;;;4108376;28;20165;-70
2022/08/22 06:24:36;;;;;;;9.40;2.67;;;20.50;99.90;;;;;;4108735;28;20043;-70
2022/08/22 06:26:45;;;;;;;4.30;2.10;;;20.50;99.90;;;;;;4108647;28;20046;-70
2022/08/22 06:28:50;;;;;;;6.22;2.30;;;20.50;99.90;;;;;;4105867;28;20043;-69
2022/08/22 06:30:53;;;;;;;5.25;2.83;;;20.60;99.90;;;;;;4106471;28;20819;-69
2022/08/22 06:33:06;;;;;;;4.45;2.33;;;20.60;99.90;;;;;;4111040;28;20106;-69
2022/08/22 06:35:15;;;;;;;8.85;2.70;;;20.60;99.90;;;;;;4108883;28;20042;-70
2022/08/22 06:37:30;;;;;;;5.53;2.83;;;20.60;99.90;;;;;;4109980;28;20071;-70
2022/08/22 06:39:34;;;;;;;7.30;2.38;;;20.50;99.90;;;;;;4109158;28;20030;-70
2022/08/22 06:41:41;;;;;;;5.97;2.70;;;20.50;99.90;;;;;;4108056;28;20504;-72
2022/08/22 06:43:42;;;;;;;8.40;2.75;;;20.60;99.90;;;;;;4110119;28;20125;-70
2022/08/22 06:45:43;;;;;;;6.88;2.63;;;20.50;99.90;;;;;;4108177;28;20035;-69
2022/08/22 06:47:53;;;;;;;7.63;3.17;;;20.50;99.90;;;;;;4109767;28;20537;-70
2022/08/22 06:50:01;;;;;;;9.23;3.03;;;20.60;99.90;;;;;;4109611;28;20035;-70
2022/08/22 06:52:10;;;;;;;4.60;2.45;;;20.70;99.90;;;;;;4107649;28;20023;-70
2022/08/22 06:54:17;;;;;;;7.28;3.20;;;20.70;99.90;;;;;;4108657;28;21269;-70
2022/08/22 06:56:24;;;;;;;8.18;3.00;;;20.70;99.90;;;;;;4109459;28;20038;-69
2022/08/22 06:58:41;;;;;;;7.97;3.65;;;20.80;99.90;;;;;;4110098;28;20038;-70
2022/08/22 07:00:43;;;;;;;5.53;2.65;;;20.90;99.90;;;;;;4108863;28;20039;-70
2022/08/22 07:02:57;;;;;;;7.38;2.95;;;21.00;99.90;;;;;;4109941;28;20514;-70
2022/08/22 07:04:58;;;;;;;6.07;2.50;;;21.00;99.90;;;;;;4110319;28;20527;-70
2022/08/22 07:07:00;;;;;;;6.40;2.80;;;21.10;99.90;;;;;;4109351;28;20121;-70
2022/08/22 07:09:03;;;;;;;6.47;2.53;;;21.20;99.90;;;;;;4108337;28;20046;-71
2022/08/22 07:11:28;;;;;;;7.60;3.15;;;21.20;99.90;;;;;;4108323;28;20042;-70
2022/08/22 07:13:30;;;;;;;8.13;3.35;;;21.30;99.90;;;;;;4109516;28;20051;-70
2022/08/22 07:15:35;;;;;;;6.85;2.90;;;21.30;99.90;;;;;;4108905;28;20046;-70
2022/08/22 07:17:48;;;;;;;7.90;3.25;;;21.30;99.90;;;;;;4109040;28;20039;-69
2022/08/22 07:20:04;;;;;;;6.47;3.20;;;21.40;99.90;;;;;;4102570;28;20038;-68
2022/08/22 07:22:20;;;;;;;6.35;3.17;;;21.50;99.90;;;;;;4108263;28;20042;-71
2022/08/22 07:24:30;;;;;;;6.63;2.63;;;21.50;99.90;;;;;;4107930;28;20054;-71
2022/08/22 07:26:57;;;;;;;7.53;2.80;;;21.50;99.90;;;;;;4107080;28;20500;-72
2022/08/22 07:29:17;;;;;;;7.10;2.65;;;21.60;99.90;;;;;;4073309;28;20066;-70
2022/08/22 07:31:37;;;;;;;7.82;2.97;;;21.70;99.90;;;;;;4104577;28;20127;-70
2022/08/22 07:33:42;;;;;;;6.15;3.08;;;21.80;99.90;;;;;;4108390;28;20038;-70
2022/08/22 07:35:48;;;;;;;4.90;2.58;;;21.80;99.90;;;;;;4111856;28;20573;-70
2022/08/22 07:38:23;;;;;;;9.93;3.25;;;21.80;99.90;;;;;;4106523;28;20081;-70
2022/08/22 07:40:27;;;;;;;4.75;2.40;;;21.90;99.90;;;;;;4091383;28;20035;-70
2022/08/22 07:42:39;;;;;;;7.15;3.00;;;21.90;99.90;;;;;;4108348;28;20517;-70
2022/08/22 07:45:06;;;;;;;7.05;3.00;;;21.90;99.90;;;;;;4107703;28;20043;-70
2022/08/22 07:47:19;;;;;;;6.00;2.53;;;22.00;99.90;;;;;;4107204;28;20031;-71
2022/08/22 07:49:23;;;;;;;6.43;2.70;;;22.00;99.90;;;;;;4108564;28;20051;-71
2022/08/22 07:51:46;;;;;;;5.28;2.50;;;22.00;99.90;;;;;;4107742;28;20365;-70
2022/08/22 07:54:02;;;;;;;5.55;3.00;;;22.00;99.90;;;;;;4108231;28;20039;-70
2022/08/22 07:56:06;;;;;;;6.25;3.00;;;22.10;99.90;;;;;;4104898;28;20568;-71
2022/08/22 07:58:07;;;;;;;7.85;3.17;;;22.00;99.90;;;;;;4103582;28;20549;-71
2022/08/22 08:00:14;;;;;;;6.95;3.08;;;22.10;99.90;;;;;;4105802;28;22769;-71
2022/08/22 08:02:17;;;;;;;6.00;2.78;;;22.00;99.90;;;;;;4108503;28;20049;-70
2022/08/22 08:04:24;;;;;;;6.13;2.78;;;22.00;99.90;;;;;;4108929;28;20049;-69
2022/08/22 08:06:26;;;;;;;7.18;2.83;;;22.10;99.90;;;;;;4112504;28;20101;-69
2022/08/22 08:08:37;;;;;;;7.07;3.13;;;22.10;99.90;;;;;;4106665;28;20089;-70
2022/08/22 08:10:39;;;;;;;10.38;3.53;;;22.10;99.90;;;;;;4104136;28;20042;-70
2022/08/22 08:12:46;;;;;;;6.00;3.65;;;22.20;99.90;;;;;;4109051;28;20498;-70
2022/08/22 08:14:51;;;;;;;7.97;4.18;;;22.20;99.90;;;;;;4109018;28;20062;-70
2022/08/22 08:17:17;;;;;;;11.25;3.65;;;22.30;99.90;;;;;;4108221;28;20042;-70
2022/08/22 08:19:19;;;;;;;6.22;3.10;;;22.30;99.90;;;;;;4097502;28;20445;-68
2022/08/22 08:21:32;;;;;;;5.68;2.97;;;22.40;99.90;;;;;;4108134;28;20034;-70
2022/08/22 08:23:41;;;;;;;8.07;3.65;;;22.40;99.90;;;;;;4107240;28;20062;-71
2022/08/22 08:25:59;;;;;;;5.63;3.10;;;22.50;99.90;;;;;;4097511;28;20050;-70
2022/08/22 08:30:23;;;;;;;5.07;3.15;;;22.60;99.90;;;;;;4105589;28;20034;-70
2022/08/22 08:32:30;;;;;;;6.70;3.13;;;22.70;99.90;;;;;;4101298;28;20027;-70
2022/08/22 08:34:33;;;;;;;11.18;3.88;;;22.80;99.90;;;;;;4108017;28;20041;-70
2022/08/22 08:36:49;;;;;;;8.18;3.83;;;23.00;99.90;;;;;;4107400;28;20030;-70
2022/08/22 08:38:57;;;;;;;6.97;2.83;;;23.10;99.90;;;;;;4105916;28;20027;-71
2022/08/22 08:41:07;;;;;;;6.18;2.95;;;23.20;99.90;;;;;;4106040;28;20038;-71
2022/08/22 08:43:26;;;;;;;3.63;2.20;;;23.40;99.90;;;;;;4096132;28;20039;-71
2022/08/22 08:46:08;;;;;;;4.15;2.40;;;23.60;99.90;;;;;;4107735;28;20126;-71
2022/08/22 08:48:42;;;;;;;4.50;2.03;;;23.80;98.90;;;;;;4100000;28;20131;-72
2022/08/22 08:51:03;;;;;;;19.13;1.92;;;24.00;99.90;;;;;;4060407;28;20047;-71
2022/08/22 08:53:26;;;;;;;4.85;2.03;;;24.20;99.90;;;;;;4106757;28;20038;-71
2022/08/22 08:55:31;;;;;;;5.47;2.10;;;24.40;97.80;;;;;;4107896;28;20043;-71
2022/08/22 08:57:48;;;;;;;2.80;1.50;;;24.60;95.50;;;;;;4106826;28;20034;-71
2022/08/22 09:00:02;;;;;;;4.45;1.83;;;24.60;96.10;;;;;;4102790;28;20051;-70
2022/08/22 09:02:31;;;;;;;2.58;1.58;;;24.70;94.80;;;;;;4107243;28;20051;-72
2022/08/22 09:04:48;;;;;;;4.10;1.73;;;24.80;95.40;;;;;;4104056;28;20114;-72
2022/08/22 09:07:04;;;;;;;6.10;1.63;;;24.90;94.40;;;;;;4107992;28;20410;-69
2022/08/22 09:09:14;;;;;;;7.20;1.83;;;25.10;96.10;;;;;;4109692;28;20031;-72
2022/08/22 09:11:27;;;;;;;4.07;1.80;;;25.30;94.10;;;;;;4107347;28;20030;-73
2022/08/22 09:13:48;;;;;;;2.75;1.48;;;25.30;94.50;;;;;;4111236;28;20047;-72
2022/08/22 09:15:51;;;;;;;4.45;1.48;;;25.50;93.50;;;;;;4110586;28;20051;-70
2022/08/22 09:18:11;;;;;;;4.90;1.30;;;25.60;90.10;;;;;;4111485;28;20486;-72
2022/08/22 09:20:48;;;;;;;2.90;1.67;;;25.60;90.90;;;;;;4094944;28;20114;-71
2022/08/22 09:23:16;;;;;;;5.05;1.30;;;25.60;90.00;;;;;;4111688;28;20039;-73
2022/08/22 09:25:41;;;;;;;8.05;1.73;;;25.60;88.70;;;;;;4110963;28;20038;-71
2022/08/22 09:27:54;;;;;;;5.47;1.70;;;25.60;90.20;;;;;;4106302;28;20035;-70
2022/08/22 09:30:14;;;;;;;3.83;1.30;;;25.60;86.70;;;;;;4109987;28;20087;-70
2022/08/22 09:32:30;;;;;;;3.30;1.30;;;25.80;89.60;;;;;;4111304;28;20125;-72
2022/08/22 09:34:59;;;;;;;3.15;1.30;;;25.90;90.20;;;;;;4109221;28;20027;-72
2022/08/22 09:37:20;;;;;;;6.20;2.10;;;26.00;86.80;;;;;;4065889;28;20030;-71
2022/08/22 09:39:40;;;;;;;5.15;1.83;;;26.10;83.90;;;;;;4108945;28;20038;-71
2022/08/22 09:41:54;;;;;;;6.07;1.70;;;26.10;79.40;;;;;;4106197;28;20798;-71
2022/08/22 09:44:14;;;;;;;4.80;1.80;;;26.20;80.00;;;;;;4109819;28;20125;-71
2022/08/22 09:46:18;;;;;;;4.80;1.60;;;26.20;79.90;;;;;;4116319;28;20031;-72
2022/08/22 09:48:41;;;;;;;4.78;1.70;;;26.30;77.60;;;;;;4109381;28;20046;-70
2022/08/22 09:51:04;;;;;;;4.40;1.40;;;26.30;79.50;;;;;;4109436;28;20569;-69
2022/08/22 09:53:09;;;;;;;;;;;26.30;84.40;;;;;;4110260;28;20425;-70
2022/08/22 09:55:43;;;;;;;4.55;1.50;;;26.30;77.90;;;;;;4110748;28;19941;-71
2022/08/22 09:57:53;;;;;;;4.32;1.45;;;26.40;81.00;;;;;;4086550;28;20043;-72
2022/08/22 10:00:19;;;;;;;2.22;1.00;;;26.40;81.60;;;;;;4110288;28;20035;-71
2022/08/22 10:02:33;;;;;;;2.83;1.33;;;26.50;79.90;;;;;;4110427;28;20078;-72
2022/08/22 10:05:10;;;;;;;4.75;1.58;;;26.70;87.20;;;;;;4109050;28;20042;-71
2022/08/22 10:07:53;;;;;;;3.22;1.33;;;26.80;79.20;;;;;;4107645;28;20498;-69
2022/08/22 10:10:03;;;;;;;3.60;2.00;;;26.80;78.60;;;;;;4107853;28;20051;-69
2022/08/22 10:12:09;;;;;;;4.40;1.40;;;26.80;79.40;;;;;;4108000;28;20532;-70
2022/08/22 10:14:33;;;;;;;5.63;1.80;;;26.90;84.50;;;;;;4103785;28;20450;-69
2022/08/22 10:16:52;;;;;;;4.68;1.65;;;26.80;80.10;;;;;;4107981;28;20039;-70
2022/08/22 10:19:15;;;;;;;3.15;1.40;;;26.90;83.90;;;;;;4106945;28;20031;-70
2022/08/22 10:21:42;;;;;;;5.47;1.55;;;27.00;81.30;;;;;;4108326;28;20046;-71
2022/08/22 10:24:22;;;;;;;4.32;1.40;;;27.10;83.10;;;;;;4109255;28;20037;-70
2022/08/22 10:26:43;;;;;;;4.30;1.38;;;27.20;77.80;;;;;;4108878;28;20122;-69
2022/08/22 10:28:46;;;;;;;3.92;1.50;;;27.20;79.90;;;;;;4109924;28;20146;-70
2022/08/22 10:30:51;;;;;;;5.13;1.77;;;27.30;76.80;;;;;;4107461;28;20702;-71
2022/08/22 10:33:02;;;;;;;3.10;1.10;;;27.30;77.20;;;;;;4109569;28;20035;-70
2022/08/22 10:35:22;;;;;;;3.30;1.45;;;27.30;82.10;;;;;;4109313;28;20031;-69
2022/08/22 10:37:52;;;;;;;3.97;1.45;;;27.40;80.50;;;;;;4108839;28;20394;-70
2022/08/22 10:40:06;;;;;;;3.42;1.40;;;27.40;76.00;;;;;;4109473;28;20063;-70
2022/08/22 10:42:29;;;;;;;2.88;1.27;;;27.40;76.60;;;;;;4108431;28;20042;-70
2022/08/22 10:44:43;;;;;;;5.90;1.95;;;27.40;79.50;;;;;;4068883;28;20036;-70
2022/08/22 10:46:59;;;;;;;5.25;1.80;;;27.50;83.20;;;;;;4108282;28;20043;-71
2022/08/22 10:49:03;;;;;;;4.05;1.60;;;27.50;81.30;;;;;;4106565;28;20110;-70
2022/08/22 10:51:18;;;;;;;3.25;1.17;;;27.60;80.50;;;;;;4107616;28;20046;-72
2022/08/22 10:53:36;;;;;;;2.78;1.08;;;27.50;78.70;;;;;;4109126;28;20140;-70
2022/08/22 10:55:40;;;;;;;4.30;1.60;;;27.60;78.00;;;;;;4107631;28;20394;-70
2022/08/22 10:58:07;;;;;;;3.10;1.40;;;27.40;75.10;;;;;;4109036;28;20075;-71
2022/08/22 11:00:10;;;;;;;5.05;1.42;;;27.50;80.90;;;;;;4105859;28;20047;-71
2022/08/22 11:02:32;;;;;;;5.00;1.60;;;27.50;78.90;;;;;;4109801;28;20035;-70
2022/08/22 11:04:52;;;;;;;6.18;1.80;;;27.30;75.20;;;;;;4109329;28;20564;-71
2022/08/22 11:07:09;;;;;;;3.22;1.70;;;27.30;75.10;;;;;;4106900;28;20039;-70
2022/08/22 11:09:20;;;;;;;3.30;1.45;;;27.30;73.90;;;;;;4109329;28;20053;-70
2022/08/22 11:11:41;;;;;;;3.88;1.70;;;27.30;74.30;;;;;;4105777;28;20414;-69
2022/08/22 11:14:01;;;;;;;4.35;1.45;;;27.20;74.30;;;;;;4106397;28;20043;-70
2022/08/22 11:16:20;;;;;;;3.47;1.50;;;27.20;79.60;;;;;;4108850;28;20129;-70
2022/08/22 11:18:55;;;;;;;4.07;1.40;;;27.20;76.20;;;;;;4108359;28;20037;-69
2022/08/22 11:21:13;;;;;;;4.38;1.63;;;27.10;76.10;;;;;;4106075;28;20042;-70
2022/08/22 11:23:45;;;;;;;2.92;1.08;;;27.10;75.10;;;;;;4108015;28;20027;-70
2022/08/22 11:26:08;;;;;;;4.03;1.60;;;27.10;79.80;;;;;;4107588;28;20458;-70
2022/08/22 11:28:18;;;;;;;4.38;1.80;;;27.20;79.00;;;;;;4108326;28;20070;-70
2022/08/22 11:30:44;;;;;;;7.75;2.40;;;27.30;77.90;;;;;;4107406;28;20042;-70
2022/08/22 11:33:24;;;;;;;4.60;1.58;;;27.30;80.20;;;;;;4108927;28;20038;-70
2022/08/22 11:35:35;;;;;;;9.07;1.63;;;27.30;79.30;;;;;;4108457;28;20211;-70
2022/08/22 11:37:55;;;;;;;3.45;1.60;;;27.30;79.60;;;;;;4107084;28;20509;-70
2022/08/22 11:40:10;;;;;;;5.10;2.00;;;27.40;76.70;;;;;;4109115;28;20050;-70
2022/08/22 11:42:23;;;;;;;2.80;1.48;;;27.40;79.60;;;;;;4108927;28;20510;-70
2022/08/22 11:44:37;;;;;;;;;;;27.40;78.00;;;;;;4107888;28;20091;-71
2022/08/22 11:46:42;;;;;;;8.00;1.98;;;27.40;75.10;;;;;;4108927;28;19918;-71
2022/08/22 11:49:15;;;;;;;3.17;1.33;;;27.40;76.40;;;;;;4108968;28;20050;-71
2022/08/22 11:51:42;;;;;;;5.15;1.80;;;27.50;78.00;;;;;;4107201;28;20050;-71
2022/08/22 11:53:53;;;;;;;6.30;1.80;;;27.50;78.80;;;;;;4108261;28;20494;-70
2022/08/22 11:56:01;;;;;;;3.05;1.48;;;27.50;77.60;;;;;;4110516;28;20447;-69